x

Santa Monica Basin - 33nm Wsw Of Santa Monica, Ca (46025) Wave Buoy

1:50pm - Mon 24th Nov 2014 All times are PST. -8 hours from GMT.

  • Sig Wave height 3.6ft
  • Swell Direction
  • Peak Period 14s
  • Average Period 6s
  • Wind
    2mph, 4mph gusts
  • Sea Temp 67°f
  • Air Temp 69°f
  • Sea Pressure 1022.8mb
  • Santa Monica Basin - 33nm Wsw Of Santa Monica, Ca
  • Santa Monica Basin - 33nm Wsw Of Santa Monica, Ca

More Historic Weather Station data

Upgrade to MSW Pro to gain access to the past 30 days of data for over 8000 Wavebouys and Weather Stations around the globe.

Join Pro

Comparision Forecast

View Surf forecast
   
Mon 11/24 1:50pm 3.5ft 14s 6s 2 4 mph 1022.8mb 67f 69f
12:50pm 3.5ft 14s 6s 4 7 mph 1023mb 67f 68f
11:50am 4ft 14s 6s 2 4 mph 1023.5mb 66f 68f
10:50am 3.5ft 13s 6s 4 7 mph 1024mb 66f 69f
9:50am 3.5ft 15s 6s 13 18 mph 1023.9mb 66f 69f
8:50am 3.5ft 15s 6s 7
mph
1023.4mb 66f 68f
7:50am 3.5ft 15s 6s 4 7 mph 1022.5mb 66f 67f
6:50am 3.5ft 14s  -  7 9 mph 1021.8mb 66f 68f
5:50am 4ft 11s 7s 9
mph
1021.3mb 65f 65f
4:50am 4ft 13s 7s 11 13 mph 1020.8mb 65f 65f
3:50am 3.5ft 13s 6s 11 13 mph 1020.9mb 65f 65f
2:50am 3.5ft 14s 7s 11 13 mph 1020.9mb 65f 65f
1:50am 3ft 12s 6s 13 16 mph 1020.9mb 65f 65f
12:50am 3.5ft 14s 7s 7
mph
1021mb 65f 65f
Sun 11/23 11:50pm 3.5ft 14s 7s 9 11 mph 1021mb 65f 66f
10:50pm 3.5ft 14s 6s 13
mph
1020.9mb 65f 67f
9:50pm 3ft 10s 6s 11
mph
1020.7mb 65f 67f
8:50pm 3.5ft 15s 6s 11 13 mph 1020.5mb 65f 66f
7:50pm 4.5ft 14s 6s 13 16 mph 1020.5mb 65f 67f
5:50pm 4.5ft 14s 5s 18 22 mph 1019.8mb 66f 67f
4:50pm 4ft 8s 5s 20 25 mph 1019.4mb 66f 67f
3:50pm 4ft 11s 5s 22 25 mph 1019.1mb 66f 67f
2:50pm 4ft 13s 5s 20 25 mph 1018.8mb 66f 68f
1:50pm 4ft 12s 6s 11 13 mph 1019.4mb 66f 70f
12:50pm 4.5ft 13s 5s 11 13 mph 1019.8mb 66f 69f
11:50am 4.5ft 5s 5s 4 7 mph 1020.6mb 66f 68f
10:50am 4ft 15s 6s 9 11 mph 1021.2mb 65f 68f
9:50am 4ft 14s 6s 13 18 mph 1021.2mb 65f 67f
8:50am 4ft 8s 6s 13 16 mph 1021.3mb 65f 68f
7:50am 4ft 8s  -  9 11 mph 1020.5mb 65f 66f
6:50am 4.5ft 7s 6s 4 7 mph 1020.2mb 65f 64f
5:50am 4ft 8s 6s 2 4 mph 1018.9mb 65f 64f
4:50am 4ft 7s 6s 4
mph
1018.1mb 66f 64f
3:50am 4ft 6s 6s 7 9 mph 1017.7mb 66f 64f
2:50am 4.5ft 7s 6s 9 11 mph 1017.5mb 66f 64f
1:50am 4.5ft 6s 6s 11
mph
1017.7mb 66f 64f
12:50am 4.5ft 6s 6s 11 13 mph 1017.1mb 66f 65f
Sat 11/22 11:50pm 5ft 6s 6s 4 7 mph 1017.1mb 66f 65f
10:50pm 5.5ft 6s 6s 11 13 mph 1017mb 66f 65f
9:50pm 6ft 7s 6s 18 22 mph 1016.9mb 65f 65f
8:50pm 6ft 7s 5s 18 20 mph 1016.7mb 65f 65f
7:50pm 6ft 7s 6s 13 18 mph 1016.5mb 65f 66f
6:50pm 6ft 7s 6s 18 22 mph 1016mb 65f 67f
5:50pm 6ft 6s 6s 2 4 mph 1016.1mb 65f 65f
4:50pm 5ft 7s 6s 7 9 mph 1016.4mb 66f 65f
3:50pm 4.5ft 7s 6s 13 16 mph 1016.7mb 66f 65f
2:50pm 4.5ft 10s 6s 7 9 mph 1017.2mb 67f 65f
1:50pm 4ft 7s 6s  -  2 mph 1017.9mb 67f 65f
12:50pm 3.5ft 7s 6s 4
mph
1018.5mb 66f 64f
11:50am 3.5ft 11s 6s 2 4 mph 1018.8mb 66f 63f
10:50am 3.5ft 12s 7s 4 7 mph 1020.1mb 66f 63f
9:50am 4ft 13s 7s 7 9 mph 1020.1mb 66f 63f
8:50am 4ft 8s 6s 7 9 mph 1019.7mb 66f 63f
7:50am 4.5ft 7s 6s 7 9 mph 1019mb 66f 64f
6:50am 4.5ft 8s 6s 7 9 mph 1018.7mb 66f 63f
5:50am 4.5ft 6s 6s 7 11 mph 1018.4mb 66f 64f
4:50am 4.5ft 7s 6s 7
mph
1018.1mb 66f 64f
3:50am 4.5ft 9s 6s 4
mph
1017.9mb 66f 64f
2:50am 4.5ft 10s 6s 7 9 mph 1018.1mb 66f 64f
1:50am 4ft 8s 6s 9
mph
1018.2mb 66f 64f
12:50am 4.5ft 8s 6s 9
mph
1017.9mb 66f 64f
Fri 11/21 11:50pm 4.5ft 8s 6s 9 11 mph 1017.8mb 66f 65f
10:50pm 4.5ft 8s 6s 7 11 mph 1017.9mb 66f 65f
9:50pm 4.5ft 7s 6s 4
mph
1017.1mb 66f 66f
8:50pm 4.5ft 8s 6s 7
mph
1017mb 66f 65f
7:50pm 5ft 6s 6s 9
mph
1016.6mb 66f 65f
6:50pm 4.5ft 6s 6s 11
mph
1015.9mb 66f 65f
5:50pm 4.5ft 7s 6s 9 11 mph 1015.4mb 66f 65f
4:50pm 5ft 7s 6s 11 13 mph 1014.9mb 66f 65f
3:50pm 5ft 7s 6s 11 13 mph 1014.7mb 66f 66f
2:50pm 5ft 7s 6s 13 16 mph 1014.3mb 66f 66f
1:50pm 5ft 11s 6s 16 18 mph 1014.4mb 66f 65f
12:50pm 4.5ft 7s 6s 16 18 mph 1014.8mb 66f 65f
11:50am 5ft 8s 6s 13 16 mph 1015.5mb 66f 64f
10:50am 4.5ft 11s 6s 13 16 mph 1016mb 65f 64f
9:50am 5ft 6s 6s 11 13 mph 1015.7mb 65f 63f
8:50am 5ft 9s 6s 11 13 mph 1015.7mb 65f 63f
7:50am 5ft 10s 5s 18 20 mph 1015mb 65f 63f
6:50am 5.5ft 9s 6s 20 22 mph 1014.3mb 65f 63f
5:50am 5ft 9s 6s 18 20 mph 1014.1mb 65f 63f
4:50am 5ft 11s 6s 9 13 mph 1013.8mb 65f 62f
3:50am 5.5ft 11s 6s 18 20 mph 1014.2mb 65f 62f
2:50am 5.5ft 11s 6s 18 22 mph 1014.4mb 66f 62f
1:50am 5.5ft 11s 6s 18 22 mph 1014.8mb 66f 62f
12:50am 5ft 11s 6s 16 20 mph 1015.4mb 66f 63f
Thu 11/20 11:50pm 5ft 11s 6s 16 20 mph 1015.9mb 66f 63f
10:50pm 5ft 11s 6s 18 20 mph 1015.7mb 66f 63f